sensor_id;sensor_type;location;lat;lon;timestamp;temperature;humidity
36374;DHT22;22399;51.346;12.372;2023-03-11T00:00:46;1.70;99.90
36374;DHT22;22399;51.346;12.372;2023-03-11T00:03:18;1.70;99.90
36374;DHT22;22399;51.346;12.372;2023-03-11T00:05:47;1.70;99.90
36374;DHT22;22399;51.346;12.372;2023-03-11T00:08:18;1.70;99.90
36374;DHT22;22399;51.346;12.372;2023-03-11T00:10:49;1.60;99.90
36374;DHT22;22399;51.346;12.372;2023-03-11T00:13:18;1.60;99.90
36374;DHT22;22399;51.346;12.372;2023-03-11T00:15:48;1.60;99.90
36374;DHT22;22399;51.346;12.372;2023-03-11T00:18:18;1.60;99.90
36374;DHT22;22399;51.346;12.372;2023-03-11T00:20:47;1.60;99.90
36374;DHT22;22399;51.346;12.372;2023-03-11T00:23:15;1.50;99.90
36374;DHT22;22399;51.346;12.372;2023-03-11T00:25:45;1.50;99.90
36374;DHT22;22399;51.346;12.372;2023-03-11T00:28:14;1.40;99.90
36374;DHT22;22399;51.346;12.372;2023-03-11T00:30:44;1.40;99.90
36374;DHT22;22399;51.346;12.372;2023-03-11T00:33:14;1.30;99.90
36374;DHT22;22399;51.346;12.372;2023-03-11T00:35:44;1.30;99.90
36374;DHT22;22399;51.346;12.372;2023-03-11T00:38:13;1.20;99.90
36374;DHT22;22399;51.346;12.372;2023-03-11T00:40:44;1.20;99.90
36374;DHT22;22399;51.346;12.372;2023-03-11T00:43:13;1.20;99.90
36374;DHT22;22399;51.346;12.372;2023-03-11T00:45:41;1.20;99.90
36374;DHT22;22399;51.346;12.372;2023-03-11T00:48:10;1.10;99.90
36374;DHT22;22399;51.346;12.372;2023-03-11T00:50:40;1.10;99.90
36374;DHT22;22399;51.346;12.372;2023-03-11T00:53:10;1.10;99.90
36374;DHT22;22399;51.346;12.372;2023-03-11T00:55:39;1.00;99.90
36374;DHT22;22399;51.346;12.372;2023-03-11T00:58:10;1.00;99.90
36374;DHT22;22399;51.346;12.372;2023-03-11T01:00:49;1.00;99.90
36374;DHT22;22399;51.346;12.372;2023-03-11T01:03:17;1.00;99.90
36374;DHT22;22399;51.346;12.372;2023-03-11T01:05:46;1.00;99.90
36374;DHT22;22399;51.346;12.372;2023-03-11T01:08:16;1.00;99.90
36374;DHT22;22399;51.346;12.372;2023-03-11T01:10:44;0.90;99.90
36374;DHT22;22399;51.346;12.372;2023-03-11T01:13:12;1.00;99.90
36374;DHT22;22399;51.346;12.372;2023-03-11T01:15:41;1.00;99.90
36374;DHT22;22399;51.346;12.372;2023-03-11T01:18:09;0.90;99.90
36374;DHT22;22399;51.346;12.372;2023-03-11T01:20:38;0.90;99.90
36374;DHT22;22399;51.346;12.372;2023-03-11T01:23:06;0.90;99.90
36374;DHT22;22399;51.346;12.372;2023-03-11T01:25:37;0.90;99.90
36374;DHT22;22399;51.346;12.372;2023-03-11T01:28:06;0.90;99.90
36374;DHT22;22399;51.346;12.372;2023-03-11T01:30:37;0.90;99.90
36374;DHT22;22399;51.346;12.372;2023-03-11T01:33:07;0.90;99.90
36374;DHT22;22399;51.346;12.372;2023-03-11T01:35:38;0.90;99.90
36374;DHT22;22399;51.346;12.372;2023-03-11T01:38:08;0.90;99.90
36374;DHT22;22399;51.346;12.372;2023-03-11T01:40:41;0.80;99.90
36374;DHT22;22399;51.346;12.372;2023-03-11T01:43:39;0.80;99.90
36374;DHT22;22399;51.346;12.372;2023-03-11T01:46:14;0.80;99.90
36374;DHT22;22399;51.346;12.372;2023-03-11T01:48:46;0.80;99.90
36374;DHT22;22399;51.346;12.372;2023-03-11T01:51:18;0.80;99.90
36374;DHT22;22399;51.346;12.372;2023-03-11T01:53:56;0.80;99.90
36374;DHT22;22399;51.346;12.372;2023-03-11T01:56:28;0.80;99.90
36374;DHT22;22399;51.346;12.372;2023-03-11T01:58:57;0.80;99.90
36374;DHT22;22399;51.346;12.372;2023-03-11T02:01:27;0.80;99.90
36374;DHT22;22399;51.346;12.372;2023-03-11T02:03:57;0.80;99.90
36374;DHT22;22399;51.346;12.372;2023-03-11T02:06:27;0.80;99.90
36374;DHT22;22399;51.346;12.372;2023-03-11T02:08:56;0.80;99.90
36374;DHT22;22399;51.346;12.372;2023-03-11T02:11:29;0.80;99.90
36374;DHT22;22399;51.346;12.372;2023-03-11T02:14:02;0.80;99.90
36374;DHT22;22399;51.346;12.372;2023-03-11T02:16:31;0.80;99.90
36374;DHT22;22399;51.346;12.372;2023-03-11T02:19:10;0.80;99.90
36374;DHT22;22399;51.346;12.372;2023-03-11T02:21:43;0.80;99.90
36374;DHT22;22399;51.346;12.372;2023-03-11T02:24:16;0.80;99.90
36374;DHT22;22399;51.346;12.372;2023-03-11T02:26:53;0.80;99.90
36374;DHT22;22399;51.346;12.372;2023-03-11T02:29:24;0.80;99.90
36374;DHT22;22399;51.346;12.372;2023-03-11T02:31:55;0.80;99.90
36374;DHT22;22399;51.346;12.372;2023-03-11T02:34:26;0.80;99.90
36374;DHT22;22399;51.346;12.372;2023-03-11T02:36:56;0.80;99.90
36374;DHT22;22399;51.346;12.372;2023-03-11T02:39:29;0.70;99.90
36374;DHT22;22399;51.346;12.372;2023-03-11T02:42:03;0.80;99.90
36374;DHT22;22399;51.346;12.372;2023-03-11T02:44:33;0.70;99.90
36374;DHT22;22399;51.346;12.372;2023-03-11T02:47:01;0.80;99.90
36374;DHT22;22399;51.346;12.372;2023-03-11T02:49:30;0.80;99.90
36374;DHT22;22399;51.346;12.372;2023-03-11T02:51:59;0.80;99.90
36374;DHT22;22399;51.346;12.372;2023-03-11T02:54:29;0.80;99.90
36374;DHT22;22399;51.346;12.372;2023-03-11T02:56:57;0.80;99.90
36374;DHT22;22399;51.346;12.372;2023-03-11T02:59:28;0.80;99.90
36374;DHT22;22399;51.346;12.372;2023-03-11T03:01:59;0.80;99.90
36374;DHT22;22399;51.346;12.372;2023-03-11T03:04:28;0.80;99.90
36374;DHT22;22399;51.346;12.372;2023-03-11T03:06:58;0.80;99.90
36374;DHT22;22399;51.346;12.372;2023-03-11T03:09:26;0.80;99.90
36374;DHT22;22399;51.346;12.372;2023-03-11T03:11:55;0.80;99.90
36374;DHT22;22399;51.346;12.372;2023-03-11T03:14:23;0.80;99.90
36374;DHT22;22399;51.346;12.372;2023-03-11T03:16:53;0.80;99.90
36374;DHT22;22399;51.346;12.372;2023-03-11T03:19:22;0.80;99.90
36374;DHT22;22399;51.346;12.372;2023-03-11T03:21:51;0.80;99.90
36374;DHT22;22399;51.346;12.372;2023-03-11T03:24:21;0.80;99.90
36374;DHT22;22399;51.346;12.372;2023-03-11T03:26:49;0.80;99.90
36374;DHT22;22399;51.346;12.372;2023-03-11T03:29:18;0.80;99.90
36374;DHT22;22399;51.346;12.372;2023-03-11T03:31:48;0.90;99.90
36374;DHT22;22399;51.346;12.372;2023-03-11T03:34:17;0.90;99.90
36374;DHT22;22399;51.346;12.372;2023-03-11T03:36:46;0.90;99.90
36374;DHT22;22399;51.346;12.372;2023-03-11T03:39:16;0.90;99.90
36374;DHT22;22399;51.346;12.372;2023-03-11T03:41:47;0.90;99.90
36374;DHT22;22399;51.346;12.372;2023-03-11T03:44:16;0.90;99.90
36374;DHT22;22399;51.346;12.372;2023-03-11T03:46:46;0.90;99.90
36374;DHT22;22399;51.346;12.372;2023-03-11T03:49:14;0.80;99.90
36374;DHT22;22399;51.346;12.372;2023-03-11T03:51:45;0.80;99.90
36374;DHT22;22399;51.346;12.372;2023-03-11T03:54:24;0.90;99.90
36374;DHT22;22399;51.346;12.372;2023-03-11T03:56:52;0.90;99.90
36374;DHT22;22399;51.346;12.372;2023-03-11T03:59:21;0.90;99.90
36374;DHT22;22399;51.346;12.372;2023-03-11T04:01:53;0.90;99.90
36374;DHT22;22399;51.346;12.372;2023-03-11T04:04:23;0.90;99.90
36374;DHT22;22399;51.346;12.372;2023-03-11T04:06:53;0.90;99.90
36374;DHT22;22399;51.346;12.372;2023-03-11T04:09:22;0.90;99.90
36374;DHT22;22399;51.346;12.372;2023-03-11T04:11:51;0.90;99.90
36374;DHT22;22399;51.346;12.372;2023-03-11T04:14:20;0.90;99.90
36374;DHT22;22399;51.346;12.372;2023-03-11T04:16:53;0.90;99.90
36374;DHT22;22399;51.346;12.372;2023-03-11T04:19:24;0.90;99.90
36374;DHT22;22399;51.346;12.372;2023-03-11T04:21:54;0.90;99.90
36374;DHT22;22399;51.346;12.372;2023-03-11T04:24:24;0.90;99.90
36374;DHT22;22399;51.346;12.372;2023-03-11T04:26:53;0.90;99.90
36374;DHT22;22399;51.346;12.372;2023-03-11T04:29:22;0.90;99.90
36374;DHT22;22399;51.346;12.372;2023-03-11T04:31:52;0.90;99.90
36374;DHT22;22399;51.346;12.372;2023-03-11T04:34:21;0.90;99.90
36374;DHT22;22399;51.346;12.372;2023-03-11T04:36:51;0.90;99.90
36374;DHT22;22399;51.346;12.372;2023-03-11T04:39:24;0.90;99.90
36374;DHT22;22399;51.346;12.372;2023-03-11T04:41:53;0.90;99.90
36374;DHT22;22399;51.346;12.372;2023-03-11T04:44:24;0.90;99.90
36374;DHT22;22399;51.346;12.372;2023-03-11T04:46:54;0.90;99.90
36374;DHT22;22399;51.346;12.372;2023-03-11T04:49:23;0.90;99.90
36374;DHT22;22399;51.346;12.372;2023-03-11T04:51:51;0.90;99.90
36374;DHT22;22399;51.346;12.372;2023-03-11T04:54:23;0.90;99.90
36374;DHT22;22399;51.346;12.372;2023-03-11T04:56:52;0.80;99.90
36374;DHT22;22399;51.346;12.372;2023-03-11T04:59:22;0.80;99.90
36374;DHT22;22399;51.346;12.372;2023-03-11T05:01:51;0.80;99.90
36374;DHT22;22399;51.346;12.372;2023-03-11T05:04:20;0.80;99.90
36374;DHT22;22399;51.346;12.372;2023-03-11T05:06:49;0.80;99.90
36374;DHT22;22399;51.346;12.372;2023-03-11T05:09:19;0.80;99.90
36374;DHT22;22399;51.346;12.372;2023-03-11T05:11:50;0.80;99.90
36374;DHT22;22399;51.346;12.372;2023-03-11T05:14:20;0.80;99.90
36374;DHT22;22399;51.346;12.372;2023-03-11T05:16:49;0.80;99.90
36374;DHT22;22399;51.346;12.372;2023-03-11T05:19:18;0.90;99.90
36374;DHT22;22399;51.346;12.372;2023-03-11T05:22:07;0.80;99.90
36374;DHT22;22399;51.346;12.372;2023-03-11T05:24:36;0.90;99.90
36374;DHT22;22399;51.346;12.372;2023-03-11T05:27:06;0.80;99.90
36374;DHT22;22399;51.346;12.372;2023-03-11T05:29:36;0.80;99.90
36374;DHT22;22399;51.346;12.372;2023-03-11T05:32:07;0.80;99.90
36374;DHT22;22399;51.346;12.372;2023-03-11T05:34:36;0.80;99.90
36374;DHT22;22399;51.346;12.372;2023-03-11T05:37:06;0.80;99.90
36374;DHT22;22399;51.346;12.372;2023-03-11T05:39:35;0.80;99.90
36374;DHT22;22399;51.346;12.372;2023-03-11T05:42:06;0.80;99.90
36374;DHT22;22399;51.346;12.372;2023-03-11T05:44:35;0.80;99.90
36374;DHT22;22399;51.346;12.372;2023-03-11T05:47:04;0.90;99.90
36374;DHT22;22399;51.346;12.372;2023-03-11T05:49:33;0.80;99.90
36374;DHT22;22399;51.346;12.372;2023-03-11T05:52:01;0.90;99.90
36374;DHT22;22399;51.346;12.372;2023-03-11T05:54:31;0.90;99.90
36374;DHT22;22399;51.346;12.372;2023-03-11T05:57:00;0.90;99.90
36374;DHT22;22399;51.346;12.372;2023-03-11T05:59:31;0.90;99.90
36374;DHT22;22399;51.346;12.372;2023-03-11T06:02:03;0.90;99.90
36374;DHT22;22399;51.346;12.372;2023-03-11T06:04:32;0.90;99.90
36374;DHT22;22399;51.346;12.372;2023-03-11T06:07:02;1.00;99.90
36374;DHT22;22399;51.346;12.372;2023-03-11T06:09:34;1.00;99.90
36374;DHT22;22399;51.346;12.372;2023-03-11T06:12:06;1.00;99.90
36374;DHT22;22399;51.346;12.372;2023-03-11T06:14:49;1.00;99.90
36374;DHT22;22399;51.346;12.372;2023-03-11T06:17:18;0.90;99.90
36374;DHT22;22399;51.346;12.372;2023-03-11T06:19:47;0.90;99.90
36374;DHT22;22399;51.346;12.372;2023-03-11T06:22:15;0.90;99.90
36374;DHT22;22399;51.346;12.372;2023-03-11T06:24:44;0.90;99.90
36374;DHT22;22399;51.346;12.372;2023-03-11T06:27:13;0.90;99.90
36374;DHT22;22399;51.346;12.372;2023-03-11T06:29:42;0.90;99.90
36374;DHT22;22399;51.346;12.372;2023-03-11T06:32:12;0.90;99.90
36374;DHT22;22399;51.346;12.372;2023-03-11T06:34:41;0.90;99.90
36374;DHT22;22399;51.346;12.372;2023-03-11T06:37:09;0.90;99.90
36374;DHT22;22399;51.346;12.372;2023-03-11T06:39:39;0.90;99.90
36374;DHT22;22399;51.346;12.372;2023-03-11T06:42:11;1.00;99.90
36374;DHT22;22399;51.346;12.372;2023-03-11T06:44:42;1.00;99.90
36374;DHT22;22399;51.346;12.372;2023-03-11T06:47:12;1.00;99.90
36374;DHT22;22399;51.346;12.372;2023-03-11T06:49:41;1.10;99.90
36374;DHT22;22399;51.346;12.372;2023-03-11T06:52:10;1.10;99.90
36374;DHT22;22399;51.346;12.372;2023-03-11T06:54:38;1.10;99.90
36374;DHT22;22399;51.346;12.372;2023-03-11T06:57:08;1.10;99.90
36374;DHT22;22399;51.346;12.372;2023-03-11T06:59:37;1.10;99.90
36374;DHT22;22399;51.346;12.372;2023-03-11T07:02:09;1.20;99.90
36374;DHT22;22399;51.346;12.372;2023-03-11T07:04:43;1.10;99.90
36374;DHT22;22399;51.346;12.372;2023-03-11T07:07:11;1.20;99.90
36374;DHT22;22399;51.346;12.372;2023-03-11T07:09:40;1.10;99.90
36374;DHT22;22399;51.346;12.372;2023-03-11T07:12:12;1.10;99.90
36374;DHT22;22399;51.346;12.372;2023-03-11T07:14:41;1.10;99.90
36374;DHT22;22399;51.346;12.372;2023-03-11T07:17:10;1.10;99.90
36374;DHT22;22399;51.346;12.372;2023-03-11T07:19:49;1.10;99.90
36374;DHT22;22399;51.346;12.372;2023-03-11T07:22:18;1.10;99.90
36374;DHT22;22399;51.346;12.372;2023-03-11T07:24:47;1.20;99.90
36374;DHT22;22399;51.346;12.372;2023-03-11T07:27:16;1.20;99.90
36374;DHT22;22399;51.346;12.372;2023-03-11T07:29:45;1.30;99.90
36374;DHT22;22399;51.346;12.372;2023-03-11T07:32:13;1.30;99.90
36374;DHT22;22399;51.346;12.372;2023-03-11T07:34:42;1.40;99.90
36374;DHT22;22399;51.346;12.372;2023-03-11T07:37:12;1.40;99.90
36374;DHT22;22399;51.346;12.372;2023-03-11T07:39:41;1.50;99.90
36374;DHT22;22399;51.346;12.372;2023-03-11T07:42:09;1.40;99.90
36374;DHT22;22399;51.346;12.372;2023-03-11T07:44:38;1.40;99.90
36374;DHT22;22399;51.346;12.372;2023-03-11T07:47:07;1.50;99.90
36374;DHT22;22399;51.346;12.372;2023-03-11T07:49:37;1.50;99.90
36374;DHT22;22399;51.346;12.372;2023-03-11T07:52:08;1.50;99.90
36374;DHT22;22399;51.346;12.372;2023-03-11T07:54:38;1.60;99.90
36374;DHT22;22399;51.346;12.372;2023-03-11T07:57:06;1.70;99.90
36374;DHT22;22399;51.346;12.372;2023-03-11T07:59:39;1.70;99.90
36374;DHT22;22399;51.346;12.372;2023-03-11T08:02:08;1.80;99.90
36374;DHT22;22399;51.346;12.372;2023-03-11T08:04:38;1.90;99.90
36374;DHT22;22399;51.346;12.372;2023-03-11T08:07:06;1.90;99.90
36374;DHT22;22399;51.346;12.372;2023-03-11T08:09:35;1.90;99.90
36374;DHT22;22399;51.346;12.372;2023-03-11T08:12:06;2.00;99.90
36374;DHT22;22399;51.346;12.372;2023-03-11T08:14:34;2.10;99.90
36374;DHT22;22399;51.346;12.372;2023-03-11T08:17:03;2.10;99.90
36374;DHT22;22399;51.346;12.372;2023-03-11T08:19:31;2.10;99.90
36374;DHT22;22399;51.346;12.372;2023-03-11T08:22:01;2.10;99.90
36374;DHT22;22399;51.346;12.372;2023-03-11T08:24:30;2.10;99.90
36374;DHT22;22399;51.346;12.372;2023-03-11T08:26:58;2.20;99.90
36374;DHT22;22399;51.346;12.372;2023-03-11T08:29:28;2.20;99.90
36374;DHT22;22399;51.346;12.372;2023-03-11T08:31:57;2.20;99.90
36374;DHT22;22399;51.346;12.372;2023-03-11T08:34:25;2.10;99.90
36374;DHT22;22399;51.346;12.372;2023-03-11T08:36:54;2.10;99.90
36374;DHT22;22399;51.346;12.372;2023-03-11T08:39:22;2.10;99.90
36374;DHT22;22399;51.346;12.372;2023-03-11T08:41:51;2.00;99.90
36374;DHT22;22399;51.346;12.372;2023-03-11T08:44:20;2.00;99.90
36374;DHT22;22399;51.346;12.372;2023-03-11T08:46:49;2.00;99.90
36374;DHT22;22399;51.346;12.372;2023-03-11T08:49:18;1.90;99.90
36374;DHT22;22399;51.346;12.372;2023-03-11T08:51:46;1.90;99.90
36374;DHT22;22399;51.346;12.372;2023-03-11T08:54:15;2.00;99.90
36374;DHT22;22399;51.346;12.372;2023-03-11T08:56:43;2.00;99.90
36374;DHT22;22399;51.346;12.372;2023-03-11T08:59:14;2.10;99.90
36374;DHT22;22399;51.346;12.372;2023-03-11T09:01:42;2.20;99.90
36374;DHT22;22399;51.346;12.372;2023-03-11T09:04:12;2.20;99.90
36374;DHT22;22399;51.346;12.372;2023-03-11T09:06:42;2.20;99.90
36374;DHT22;22399;51.346;12.372;2023-03-11T09:09:11;2.20;99.90
36374;DHT22;22399;51.346;12.372;2023-03-11T09:11:40;2.20;99.90
36374;DHT22;22399;51.346;12.372;2023-03-11T09:14:08;2.30;99.90
36374;DHT22;22399;51.346;12.372;2023-03-11T09:16:37;2.40;99.90
36374;DHT22;22399;51.346;12.372;2023-03-11T09:19:05;2.40;99.90
36374;DHT22;22399;51.346;12.372;2023-03-11T09:21:36;2.50;99.90
36374;DHT22;22399;51.346;12.372;2023-03-11T09:24:05;2.60;99.90
36374;DHT22;22399;51.346;12.372;2023-03-11T09:26:36;2.70;99.90
36374;DHT22;22399;51.346;12.372;2023-03-11T09:29:04;2.80;99.90
36374;DHT22;22399;51.346;12.372;2023-03-11T09:31:33;2.90;99.90
36374;DHT22;22399;51.346;12.372;2023-03-11T09:34:01;3.20;99.90
36374;DHT22;22399;51.346;12.372;2023-03-11T09:36:30;3.40;99.90
36374;DHT22;22399;51.346;12.372;2023-03-11T09:39:01;3.40;99.90
36374;DHT22;22399;51.346;12.372;2023-03-11T09:41:35;3.50;99.90
36374;DHT22;22399;51.346;12.372;2023-03-11T09:44:27;3.70;99.90
36374;DHT22;22399;51.346;12.372;2023-03-11T09:47:14;3.90;99.90
36374;DHT22;22399;51.346;12.372;2023-03-11T09:50:08;4.10;99.90
36374;DHT22;22399;51.346;12.372;2023-03-11T09:52:51;4.10;99.90
36374;DHT22;22399;51.346;12.372;2023-03-11T09:55:30;4.00;99.90
36374;DHT22;22399;51.346;12.372;2023-03-11T09:58:03;3.80;99.90
36374;DHT22;22399;51.346;12.372;2023-03-11T10:00:35;3.80;99.90
36374;DHT22;22399;51.346;12.372;2023-03-11T10:03:06;3.70;99.90
36374;DHT22;22399;51.346;12.372;2023-03-11T10:05:41;3.80;99.90
36374;DHT22;22399;51.346;12.372;2023-03-11T10:08:18;4.00;99.90
36374;DHT22;22399;51.346;12.372;2023-03-11T10:11:03;4.10;99.90
36374;DHT22;22399;51.346;12.372;2023-03-11T10:13:44;4.20;99.90
36374;DHT22;22399;51.346;12.372;2023-03-11T10:16:21;4.10;99.90
36374;DHT22;22399;51.346;12.372;2023-03-11T10:18:58;4.00;99.90
36374;DHT22;22399;51.346;12.372;2023-03-11T10:21:39;4.00;99.90
36374;DHT22;22399;51.346;12.372;2023-03-11T10:24:18;4.10;99.90
36374;DHT22;22399;51.346;12.372;2023-03-11T10:26:55;4.10;99.90
36374;DHT22;22399;51.346;12.372;2023-03-11T10:32:17;4.60;99.90
36374;DHT22;22399;51.346;12.372;2023-03-11T10:34:50;4.70;99.90
36374;DHT22;22399;51.346;12.372;2023-03-11T10:37:24;4.80;99.90
36374;DHT22;22399;51.346;12.372;2023-03-11T10:40:18;4.70;99.90
36374;DHT22;22399;51.346;12.372;2023-03-11T10:42:54;4.50;99.90
36374;DHT22;22399;51.346;12.372;2023-03-11T10:45:23;4.10;99.90
36374;DHT22;22399;51.346;12.372;2023-03-11T10:47:55;4.00;99.90
36374;DHT22;22399;51.346;12.372;2023-03-11T10:50:23;4.00;99.90
36374;DHT22;22399;51.346;12.372;2023-03-11T10:53:05;4.00;99.90
36374;DHT22;22399;51.346;12.372;2023-03-11T10:55:35;4.10;99.90
36374;DHT22;22399;51.346;12.372;2023-03-11T10:58:15;4.20;99.90
36374;DHT22;22399;51.346;12.372;2023-03-11T11:00:44;4.40;99.90
36374;DHT22;22399;51.346;12.372;2023-03-11T11:03:20;4.60;99.90
36374;DHT22;22399;51.346;12.372;2023-03-11T11:05:59;4.70;99.90
36374;DHT22;22399;51.346;12.372;2023-03-11T11:08:28;4.60;99.90
36374;DHT22;22399;51.346;12.372;2023-03-11T11:10:58;4.40;99.90
36374;DHT22;22399;51.346;12.372;2023-03-11T11:13:29;4.20;99.90
36374;DHT22;22399;51.346;12.372;2023-03-11T11:16:01;4.20;99.90
36374;DHT22;22399;51.346;12.372;2023-03-11T11:18:32;4.30;99.90
36374;DHT22;22399;51.346;12.372;2023-03-11T11:21:04;4.40;99.90
36374;DHT22;22399;51.346;12.372;2023-03-11T11:23:37;4.40;99.90
36374;DHT22;22399;51.346;12.372;2023-03-11T11:26:15;4.40;99.90
36374;DHT22;22399;51.346;12.372;2023-03-11T11:28:46;4.30;99.90
36374;DHT22;22399;51.346;12.372;2023-03-11T11:31:35;4.30;99.90
36374;DHT22;22399;51.346;12.372;2023-03-11T11:34:26;4.20;99.90
36374;DHT22;22399;51.346;12.372;2023-03-11T11:36:56;4.10;99.90
36374;DHT22;22399;51.346;12.372;2023-03-11T11:39:26;3.80;99.90
36374;DHT22;22399;51.346;12.372;2023-03-11T11:41:56;3.80;99.90
36374;DHT22;22399;51.346;12.372;2023-03-11T11:44:31;3.80;99.90
36374;DHT22;22399;51.346;12.372;2023-03-11T11:47:05;4.00;99.90
36374;DHT22;22399;51.346;12.372;2023-03-11T11:49:36;4.10;99.90
36374;DHT22;22399;51.346;12.372;2023-03-11T11:52:12;4.20;99.90
36374;DHT22;22399;51.346;12.372;2023-03-11T11:54:45;4.40;99.90
36374;DHT22;22399;51.346;12.372;2023-03-11T11:57:20;4.40;99.90
36374;DHT22;22399;51.346;12.372;2023-03-11T11:59:51;4.30;99.90
36374;DHT22;22399;51.346;12.372;2023-03-11T12:02:34;4.20;99.90
36374;DHT22;22399;51.346;12.372;2023-03-11T12:05:09;4.10;99.90
36374;DHT22;22399;51.346;12.372;2023-03-11T12:07:53;4.00;99.90
36374;DHT22;22399;51.346;12.372;2023-03-11T12:10:27;4.00;99.90
36374;DHT22;22399;51.346;12.372;2023-03-11T12:13:27;4.00;99.90
36374;DHT22;22399;51.346;12.372;2023-03-11T12:16:01;4.10;99.90
36374;DHT22;22399;51.346;12.372;2023-03-11T12:18:36;4.50;99.90
36374;DHT22;22399;51.346;12.372;2023-03-11T12:21:15;4.70;99.90
36374;DHT22;22399;51.346;12.372;2023-03-11T12:23:59;4.80;99.90
36374;DHT22;22399;51.346;12.372;2023-03-11T12:26:34;4.90;99.90
36374;DHT22;22399;51.346;12.372;2023-03-11T12:29:09;5.00;99.90
36374;DHT22;22399;51.346;12.372;2023-03-11T12:31:44;4.90;99.90
36374;DHT22;22399;51.346;12.372;2023-03-11T12:34:14;4.80;99.90
36374;DHT22;22399;51.346;12.372;2023-03-11T12:36:46;4.60;99.90
36374;DHT22;22399;51.346;12.372;2023-03-11T12:39:20;4.60;99.90
36374;DHT22;22399;51.346;12.372;2023-03-11T12:42:14;4.60;99.90
36374;DHT22;22399;51.346;12.372;2023-03-11T12:44:43;4.80;99.90
36374;DHT22;22399;51.346;12.372;2023-03-11T12:47:19;4.70;99.90
36374;DHT22;22399;51.346;12.372;2023-03-11T12:49:49;4.60;99.90
36374;DHT22;22399;51.346;12.372;2023-03-11T12:52:23;4.60;99.90
36374;DHT22;22399;51.346;12.372;2023-03-11T12:58:29;4.60;99.90
36374;DHT22;22399;51.346;12.372;2023-03-11T13:01:16;4.40;99.90
36374;DHT22;22399;51.346;12.372;2023-03-11T13:03:58;4.20;99.90
36374;DHT22;22399;51.346;12.372;2023-03-11T13:09:33;4.00;99.90
36374;DHT22;22399;51.346;12.372;2023-03-11T13:12:02;4.20;99.90
36374;DHT22;22399;51.346;12.372;2023-03-11T13:14:31;4.40;99.90
36374;DHT22;22399;51.346;12.372;2023-03-11T13:17:23;4.60;99.90
36374;DHT22;22399;51.346;12.372;2023-03-11T13:19:54;4.60;99.90
36374;DHT22;22399;51.346;12.372;2023-03-11T13:25:43;4.70;99.90
36374;DHT22;22399;51.346;12.372;2023-03-11T13:28:29;4.70;99.90
36374;DHT22;22399;51.346;12.372;2023-03-11T13:31:18;4.70;99.90
36374;DHT22;22399;51.346;12.372;2023-03-11T13:33:51;4.60;99.90
36374;DHT22;22399;51.346;12.372;2023-03-11T13:36:39;4.50;99.90
36374;DHT22;22399;51.346;12.372;2023-03-11T13:39:38;4.30;99.90
36374;DHT22;22399;51.346;12.372;2023-03-11T13:42:19;4.20;99.90
36374;DHT22;22399;51.346;12.372;2023-03-11T13:44:49;4.30;99.90
36374;DHT22;22399;51.346;12.372;2023-03-11T13:47:19;4.40;99.90
36374;DHT22;22399;51.346;12.372;2023-03-11T13:49:51;4.60;99.90
36374;DHT22;22399;51.346;12.372;2023-03-11T13:52:27;4.80;99.90
36374;DHT22;22399;51.346;12.372;2023-03-11T13:55:01;4.80;99.90
36374;DHT22;22399;51.346;12.372;2023-03-11T13:57:31;4.80;99.90
36374;DHT22;22399;51.346;12.372;2023-03-11T14:00:06;5.00;99.90
36374;DHT22;22399;51.346;12.372;2023-03-11T14:02:45;5.30;99.90
36374;DHT22;22399;51.346;12.372;2023-03-11T14:05:21;5.70;99.90
36374;DHT22;22399;51.346;12.372;2023-03-11T14:07:51;5.70;99.90
36374;DHT22;22399;51.346;12.372;2023-03-11T14:10:23;5.70;99.90
36374;DHT22;22399;51.346;12.372;2023-03-11T14:13:04;5.60;99.90
36374;DHT22;22399;51.346;12.372;2023-03-11T14:15:41;5.70;99.90
36374;DHT22;22399;51.346;12.372;2023-03-11T14:18:29;5.80;99.90
36374;DHT22;22399;51.346;12.372;2023-03-11T14:20:59;5.70;99.90
36374;DHT22;22399;51.346;12.372;2023-03-11T14:23:33;5.70;99.90
36374;DHT22;22399;51.346;12.372;2023-03-11T14:26:05;5.70;99.90
36374;DHT22;22399;51.346;12.372;2023-03-11T14:28:41;5.60;99.90
36374;DHT22;22399;51.346;12.372;2023-03-11T14:31:22;5.60;99.90
36374;DHT22;22399;51.346;12.372;2023-03-11T14:33:56;5.90;99.90
36374;DHT22;22399;51.346;12.372;2023-03-11T14:36:41;5.90;99.90
36374;DHT22;22399;51.346;12.372;2023-03-11T14:39:28;6.40;99.90
36374;DHT22;22399;51.346;12.372;2023-03-11T14:42:06;6.90;99.90
36374;DHT22;22399;51.346;12.372;2023-03-11T14:44:41;7.50;99.90
36374;DHT22;22399;51.346;12.372;2023-03-11T14:47:15;7.10;99.90
36374;DHT22;22399;51.346;12.372;2023-03-11T14:49:47;7.50;99.90
36374;DHT22;22399;51.346;12.372;2023-03-11T14:52:19;7.60;99.90
36374;DHT22;22399;51.346;12.372;2023-03-11T14:54:51;7.40;99.90
36374;DHT22;22399;51.346;12.372;2023-03-11T14:57:33;7.30;99.90
36374;DHT22;22399;51.346;12.372;2023-03-11T15:00:09;7.00;99.90
36374;DHT22;22399;51.346;12.372;2023-03-11T15:02:44;6.90;99.90
36374;DHT22;22399;51.346;12.372;2023-03-11T15:05:18;6.70;99.90
36374;DHT22;22399;51.346;12.372;2023-03-11T15:07:50;6.40;99.90
36374;DHT22;22399;51.346;12.372;2023-03-11T15:10:25;5.90;99.90
36374;DHT22;22399;51.346;12.372;2023-03-11T15:13:05;5.60;99.90
36374;DHT22;22399;51.346;12.372;2023-03-11T15:15:33;5.30;99.90
36374;DHT22;22399;51.346;12.372;2023-03-11T15:18:02;5.00;99.90
36374;DHT22;22399;51.346;12.372;2023-03-11T15:20:32;4.70;99.90
36374;DHT22;22399;51.346;12.372;2023-03-11T15:23:02;4.60;99.90
36374;DHT22;22399;51.346;12.372;2023-03-11T15:25:35;4.50;99.90
36374;DHT22;22399;51.346;12.372;2023-03-11T15:28:20;4.50;99.90
36374;DHT22;22399;51.346;12.372;2023-03-11T15:30:50;4.40;99.90
36374;DHT22;22399;51.346;12.372;2023-03-11T15:33:21;4.20;99.90
36374;DHT22;22399;51.346;12.372;2023-03-11T15:35:50;4.10;99.90
36374;DHT22;22399;51.346;12.372;2023-03-11T15:38:21;4.00;99.90
36374;DHT22;22399;51.346;12.372;2023-03-11T15:40:57;3.90;99.90
36374;DHT22;22399;51.346;12.372;2023-03-11T15:43:29;3.90;99.90
36374;DHT22;22399;51.346;12.372;2023-03-11T15:46:01;3.80;99.90
36374;DHT22;22399;51.346;12.372;2023-03-11T15:48:30;3.70;99.90
36374;DHT22;22399;51.346;12.372;2023-03-11T15:50:59;3.60;99.90
36374;DHT22;22399;51.346;12.372;2023-03-11T15:53:28;3.50;99.90
36374;DHT22;22399;51.346;12.372;2023-03-11T15:56:02;3.50;99.90
36374;DHT22;22399;51.346;12.372;2023-03-11T15:58:37;3.40;99.90
36374;DHT22;22399;51.346;12.372;2023-03-11T16:01:06;3.30;99.90
36374;DHT22;22399;51.346;12.372;2023-03-11T16:03:34;3.20;99.90
36374;DHT22;22399;51.346;12.372;2023-03-11T16:06:05;3.20;99.90
36374;DHT22;22399;51.346;12.372;2023-03-11T16:08:33;3.10;99.90
36374;DHT22;22399;51.346;12.372;2023-03-11T16:11:04;3.10;99.90
36374;DHT22;22399;51.346;12.372;2023-03-11T16:13:33;3.00;99.90